createdAt,value
2019-05-13T00:00:30.812Z,101952.19
2019-05-13T00:03:03.378Z,101953.20
2019-05-13T00:05:34.118Z,101951.19
2019-05-13T00:08:04.663Z,101944.16
2019-05-13T00:10:35.226Z,101948.98
2019-05-13T00:13:05.666Z,101946.39
2019-05-13T00:15:36.402Z,101940.16
2019-05-13T00:18:06.887Z,101947.92
2019-05-13T00:20:37.314Z,101946.32
2019-05-13T00:23:07.749Z,101946.16
2019-05-13T00:25:38.646Z,101951.74
2019-05-13T00:28:09.076Z,101948.84
2019-05-13T00:30:39.505Z,101950.56
2019-05-13T00:33:09.985Z,101949.84
2019-05-13T00:35:40.414Z,101956.78
2019-05-13T00:38:13.943Z,101950.49
2019-05-13T00:40:44.418Z,101948.31
2019-05-13T00:43:15.166Z,101951.88
2019-05-13T00:45:46.258Z,101948.76
2019-05-13T00:48:17.598Z,101952.61
2019-05-13T00:50:48.028Z,101948.64
2019-05-13T00:53:18.459Z,101948.89
2019-05-13T00:55:48.945Z,101944.10
2019-05-13T00:58:19.374Z,101951.13
2019-05-13T01:00:49.796Z,101950.38
2019-05-13T01:03:21.220Z,101955.48
2019-05-13T01:05:53.554Z,101953.83
2019-05-13T01:08:24.381Z,101956.41
2019-05-13T01:10:54.868Z,101956.56
2019-05-13T01:13:25.705Z,101961.63
2019-05-13T01:15:56.581Z,101959.22
2019-05-13T01:18:27.385Z,101962.27
2019-05-13T01:20:57.856Z,101962.14
2019-05-13T01:23:28.326Z,101961.78
2019-05-13T01:25:59.489Z,101962.03
2019-05-13T01:28:29.913Z,101962.35
2019-05-13T01:31:01.074Z,101963.52
2019-05-13T01:33:31.887Z,101960.62
2019-05-13T01:36:05.015Z,101965.97
2019-05-13T01:38:34.513Z,101965.64
2019-05-13T01:41:04.994Z,101961.10
2019-05-13T01:43:35.500Z,101962.73
2019-05-13T01:46:06.410Z,101963.66
2019-05-13T01:48:36.889Z,101969.05
2019-05-13T01:51:07.325Z,101959.70
2019-05-13T01:53:37.752Z,101958.38
2019-05-13T01:56:08.638Z,101962.05
2019-05-13T01:58:39.823Z,101966.08
2019-05-13T02:01:10.282Z,101966.56
2019-05-13T02:03:44.090Z,101965.40
2019-05-13T02:06:14.232Z,101971.18
2019-05-13T02:08:44.836Z,101971.27
2019-05-13T02:11:15.770Z,101973.46
2019-05-13T02:13:46.861Z,101973.98
2019-05-13T02:16:17.294Z,101974.11
2019-05-13T02:18:47.773Z,101966.59
2019-05-13T02:21:18.206Z,101965.24
2019-05-13T02:23:48.655Z,101969.56
2019-05-13T02:26:19.430Z,101968.11
2019-05-13T02:28:49.865Z,101964.53
2019-05-13T02:31:32.452Z,101970.76
2019-05-13T02:33:53.287Z,101968.41
2019-05-13T02:36:24.028Z,101971.40
2019-05-13T02:38:54.849Z,101977.29
2019-05-13T02:41:25.502Z,101971.73
2019-05-13T02:43:55.931Z,101978.44
2019-05-13T02:46:26.364Z,101977.88
2019-05-13T02:48:56.869Z,101972.98
2019-05-13T02:51:27.645Z,101973.24
2019-05-13T02:53:58.093Z,101975.05
2019-05-13T02:56:28.560Z,101982.00
2019-05-13T02:58:59.044Z,101978.35
2019-05-13T03:01:33.234Z,101979.52
2019-05-13T03:04:03.474Z,101982.84
2019-05-13T03:06:34.061Z,101988.41
2019-05-13T03:09:07.654Z,101988.98
2019-05-13T03:11:38.139Z,102000.06
2019-05-13T03:14:08.583Z,101999.55
2019-05-13T03:16:45.022Z,102010.80
2019-05-13T03:19:16.027Z,102006.24
2019-05-13T03:21:46.524Z,102004.96
2019-05-13T03:24:18.443Z,102008.16
2019-05-13T03:26:48.874Z,102011.20
2019-05-13T03:29:22.131Z,102010.55
2019-05-13T03:31:55.573Z,102012.24
2019-05-13T03:34:26.734Z,102013.05
2019-05-13T03:36:57.934Z,102011.98
2019-05-13T03:39:33.137Z,102011.98
2019-05-13T03:42:04.329Z,102013.59
2019-05-13T03:44:35.382Z,102017.28
2019-05-13T03:47:05.822Z,102014.56
2019-05-13T03:49:36.829Z,102023.72
2019-05-13T03:52:07.313Z,102021.84
2019-05-13T03:54:39.069Z,102020.33
2019-05-13T03:57:12.609Z,102012.56
2019-05-13T03:59:43.606Z,102019.00
2019-05-13T04:02:14.506Z,102019.03
2019-05-13T04:04:44.936Z,102025.91
2019-05-13T04:07:15.425Z,102029.12
2019-05-13T04:09:46.844Z,102029.43
2019-05-13T04:12:17.278Z,102034.33
2019-05-13T04:14:47.855Z,102027.82
2019-05-13T04:17:18.287Z,102030.36
2019-05-13T04:19:49.086Z,102027.55
2019-05-13T04:22:22.793Z,102027.44
2019-05-13T04:24:53.059Z,102039.41
2019-05-13T04:27:23.715Z,102045.91
2019-05-13T04:29:54.324Z,102037.48
2019-05-13T04:32:28.772Z,102040.41
2019-05-13T04:34:58.661Z,102044.03
2019-05-13T04:37:32.612Z,102047.34
2019-05-13T04:40:03.823Z,102046.39
2019-05-13T04:42:34.043Z,102050.37
2019-05-13T04:45:05.073Z,102051.37
2019-05-13T04:47:35.539Z,102054.27
2019-05-13T04:50:07.347Z,102049.53
2019-05-13T04:52:37.957Z,102055.60
2019-05-13T04:55:08.406Z,102049.85
2019-05-13T04:57:42.227Z,102058.45
2019-05-13T05:00:12.928Z,102061.88
2019-05-13T05:03:13.676Z,102062.91
2019-05-13T05:06:06.707Z,102059.73
2019-05-13T05:09:22.617Z,102061.30
2019-05-13T05:12:32.055Z,102066.00
2019-05-13T05:16:12.971Z,102068.23
2019-05-13T05:19:36.193Z,102070.36
2019-05-13T05:22:27.921Z,102070.22
2019-05-13T05:25:15.034Z,102071.90
2019-05-13T05:28:05.941Z,102074.78
2019-05-13T05:30:54.529Z,102076.55
2019-05-13T05:33:53.143Z,102065.09
2019-05-13T05:37:05.289Z,102066.14
2019-05-13T05:39:38.137Z,102065.19
2019-05-13T05:42:11.230Z,102063.20
2019-05-13T05:44:45.133Z,102072.97
2019-05-13T05:47:17.401Z,102066.64
2019-05-13T05:49:48.253Z,102076.13
2019-05-13T05:52:21.277Z,102073.05
2019-05-13T05:54:53.570Z,102072.61
2019-05-13T05:57:26.838Z,102076.02
2019-05-13T05:59:57.287Z,102072.27
2019-05-13T06:02:32.209Z,102072.49
2019-05-13T06:05:03.748Z,102074.80
2019-05-13T06:07:36.643Z,102073.38
2019-05-13T06:10:07.991Z,102072.42
2019-05-13T06:12:38.918Z,102077.78
2019-05-13T06:15:12.177Z,102075.23
2019-05-13T06:17:41.905Z,102076.92
2019-05-13T06:20:13.404Z,102079.04
2019-05-13T06:22:44.337Z,102080.66
2019-05-13T06:25:14.964Z,102074.56
2019-05-13T06:27:45.914Z,102077.87
2019-05-13T06:30:16.445Z,102073.09
2019-05-13T06:32:46.930Z,102075.09
2019-05-13T06:35:18.157Z,102075.73
2019-05-13T06:37:48.690Z,102078.51
2019-05-13T06:40:21.384Z,102081.26
2019-05-13T06:42:52.141Z,102078.83
2019-05-13T06:45:22.797Z,102070.88
2019-05-13T06:47:53.277Z,102080.41
2019-05-13T06:50:23.722Z,102081.13
2019-05-13T06:52:54.227Z,102084.58
2019-05-13T06:55:24.742Z,102078.73
2019-05-13T06:57:55.188Z,102084.53
2019-05-13T07:00:26.825Z,102082.78
2019-05-13T07:02:57.607Z,102080.58
2019-05-13T07:05:28.602Z,102079.41
2019-05-13T07:07:59.044Z,102077.25
2019-05-13T07:10:31.933Z,102079.19
2019-05-13T07:13:02.340Z,102080.69
2019-05-13T07:15:33.186Z,102075.07
2019-05-13T07:18:04.094Z,102080.66
2019-05-13T07:20:34.514Z,102073.39
2019-05-13T07:23:04.949Z,102077.50
2019-05-13T07:25:35.443Z,102074.59
2019-05-13T07:28:05.988Z,102077.92
2019-05-13T07:30:46.132Z,102077.45
2019-05-13T07:33:16.670Z,102078.48
2019-05-13T07:35:47.165Z,102071.34
2019-05-13T07:38:18.932Z,102073.22
2019-05-13T07:40:54.048Z,102070.00
2019-05-13T07:43:24.546Z,102073.03
2019-05-13T07:45:55.369Z,102070.95
2019-05-13T07:48:27.830Z,102069.61
2019-05-13T07:51:03.884Z,102069.91
2019-05-13T07:53:32.371Z,102063.61
2019-05-13T07:56:02.986Z,102067.27
2019-05-13T07:58:37.435Z,102065.97
2019-05-13T08:01:07.058Z,102063.07
2019-05-13T08:03:37.505Z,102071.88
2019-05-13T08:06:07.982Z,102065.41
2019-05-13T08:08:41.477Z,102069.19
2019-05-13T08:11:12.804Z,102071.88
2019-05-13T08:13:44.708Z,102068.47
2019-05-13T08:16:16.222Z,102075.30
2019-05-13T08:18:46.662Z,102068.09
2019-05-13T08:21:17.518Z,102071.78
2019-05-13T08:23:48.295Z,102066.16
2019-05-13T08:26:18.734Z,102062.50
2019-05-13T08:29:00.128Z,102064.95
2019-05-13T08:31:21.784Z,102066.91
2019-05-13T08:33:52.323Z,102061.18
2019-05-13T08:36:23.563Z,102063.63
2019-05-13T08:38:55.143Z,102055.63
2019-05-13T08:41:25.596Z,102059.52
2019-05-13T08:43:56.117Z,102057.17
2019-05-13T08:46:26.630Z,102056.41
2019-05-13T08:48:57.433Z,102056.28
2019-05-13T08:51:31.440Z,102053.43
2019-05-13T08:54:02.485Z,102061.30
2019-05-13T08:56:33.550Z,102060.10
2019-05-13T08:59:03.976Z,102061.35
2019-05-13T09:01:34.419Z,102064.88
2019-05-13T09:04:04.905Z,102064.88
2019-05-13T09:06:35.630Z,102062.61
2019-05-13T09:09:11.320Z,102069.52
2019-05-13T09:11:42.154Z,102065.37
2019-05-13T09:14:12.854Z,102065.78
2019-05-13T09:16:44.509Z,102061.32
2019-05-13T09:19:16.224Z,102048.62
2019-05-13T09:21:47.144Z,102051.82
2019-05-13T09:24:28.996Z,102044.50
2019-05-13T09:26:52.748Z,102048.93
2019-05-13T09:29:22.756Z,102049.54
2019-05-13T09:31:54.048Z,102039.63
2019-05-13T09:34:24.854Z,102048.33
2019-05-13T09:36:56.165Z,102046.84
2019-05-13T09:39:27.344Z,102037.31
2019-05-13T09:41:58.170Z,102048.56
2019-05-13T09:44:28.921Z,102045.78
2019-05-13T09:47:02.199Z,102044.55
2019-05-13T09:52:03.959Z,102039.24
2019-05-13T09:54:34.396Z,102036.04
2019-05-13T09:57:05.265Z,102032.84
2019-05-13T09:59:35.707Z,102039.84
2019-05-13T10:02:06.153Z,102029.19
2019-05-13T10:04:36.990Z,102030.95
2019-05-13T10:07:07.451Z,102033.28
2019-05-13T10:09:37.884Z,102036.84
2019-05-13T10:12:08.445Z,102038.97
2019-05-13T10:14:38.880Z,102034.49
2019-05-13T10:17:09.320Z,102033.27
2019-05-13T10:19:42.041Z,102029.06
2019-05-13T10:22:12.203Z,102035.45
2019-05-13T10:24:42.763Z,102031.22
2019-05-13T10:27:13.360Z,102033.34
2019-05-13T10:29:44.533Z,102030.83
2019-05-13T10:32:15.785Z,102031.48
2019-05-13T10:34:47.494Z,102022.67
2019-05-13T10:37:18.073Z,102023.90
2019-05-13T10:39:48.512Z,102018.54
2019-05-13T10:42:21.626Z,102015.65
2019-05-13T10:44:52.224Z,102024.63
2019-05-13T10:47:23.106Z,102022.95
2019-05-13T10:49:53.594Z,102007.95
2019-05-13T10:52:24.032Z,102013.41
2019-05-13T10:54:54.475Z,102018.80
2019-05-13T10:57:25.300Z,102015.77
2019-05-13T10:59:59.699Z,102009.22
2019-05-13T11:02:28.374Z,102007.52
2019-05-13T11:04:58.856Z,102006.23
2019-05-13T11:07:31.335Z,102000.94
2019-05-13T11:10:02.340Z,101988.64
2019-05-13T11:12:33.674Z,102000.13
2019-05-13T11:15:04.197Z,101992.67
2019-05-13T11:17:35.429Z,101987.34
2019-05-13T11:20:06.333Z,101981.92
2019-05-13T11:22:36.767Z,101988.34
2019-05-13T11:25:07.217Z,101981.44
2019-05-13T11:27:38.170Z,101977.19
2019-05-13T11:30:08.863Z,101967.47
2019-05-13T11:32:42.404Z,101973.06
2019-05-13T11:35:13.039Z,101972.55
2019-05-13T11:37:43.693Z,101977.48
2019-05-13T11:40:15.669Z,101970.77
2019-05-13T11:42:46.160Z,101968.66
2019-05-13T11:45:17.628Z,101967.59
2019-05-13T11:47:48.057Z,101956.86
2019-05-13T11:50:19.065Z,101959.34
2019-05-13T11:52:52.537Z,101950.22
2019-05-13T11:55:22.934Z,101960.84
2019-05-13T11:57:53.662Z,101951.73
2019-05-13T12:00:53.161Z,101951.56
2019-05-13T12:03:23.893Z,101952.63
2019-05-13T12:05:55.050Z,101942.97
2019-05-13T12:08:25.553Z,101944.53
2019-05-13T12:10:56.041Z,101931.56
2019-05-13T12:13:26.742Z,101940.06
2019-05-13T12:15:57.350Z,101935.31
2019-05-13T12:18:27.859Z,101922.55
2019-05-13T12:20:58.298Z,101927.94
2019-05-13T12:23:28.729Z,101922.46
2019-05-13T12:26:04.334Z,101926.26
2019-05-13T12:28:32.556Z,101927.67
2019-05-13T12:31:03.482Z,101921.37
2019-05-13T12:33:34.156Z,101923.79
2019-05-13T12:36:05.079Z,101920.39
2019-05-13T12:38:35.566Z,101914.50
2019-05-13T12:41:06.124Z,101913.47
2019-05-13T12:43:36.553Z,101910.75
2019-05-13T12:46:07.401Z,101907.03
2019-05-13T12:48:38.058Z,101906.84
2019-05-13T12:51:12.708Z,101903.81
2019-05-13T12:53:43.413Z,101894.30
2019-05-13T12:56:14.233Z,101901.78
2019-05-13T12:58:44.674Z,101896.48
2019-05-13T13:01:15.510Z,101883.44
2019-05-13T13:03:45.994Z,101885.64
2019-05-13T13:06:32.368Z,101871.58
2019-05-13T13:08:50.695Z,101875.48
2019-05-13T13:11:22.821Z,101873.09
2019-05-13T13:13:59.502Z,101870.39
2019-05-13T13:16:34.055Z,101863.94
2019-05-13T13:18:58.141Z,101877.83
2019-05-13T13:21:33.580Z,101867.48
2019-05-13T13:24:04.416Z,101851.40
2019-05-13T13:26:34.048Z,101853.24
2019-05-13T13:29:04.538Z,101856.23
2019-05-13T13:31:35.339Z,101845.96
2019-05-13T13:34:12.157Z,101840.95
2019-05-13T13:36:38.304Z,101839.16
2019-05-13T13:39:09.206Z,101836.64
2019-05-13T13:41:43.602Z,101847.81
2019-05-13T13:44:13.019Z,101844.94
2019-05-13T13:46:49.563Z,101847.14
2019-05-13T13:49:15.639Z,101838.28
2019-05-13T13:51:46.108Z,101830.78
2019-05-13T13:54:16.978Z,101835.25
2019-05-13T13:56:48.197Z,101837.19
2019-05-13T13:59:18.628Z,101828.19
2019-05-13T14:01:54.528Z,101827.45
2019-05-13T14:04:21.633Z,101821.69
2019-05-13T14:06:25.322Z,102041.58
2019-05-13T14:09:24.244Z,101827.02
2019-05-13T14:11:54.777Z,101821.24
2019-05-13T14:14:25.604Z,101820.52
2019-05-13T14:16:56.645Z,101817.64
2019-05-13T14:19:27.473Z,101820.25
2019-05-13T14:22:01.124Z,101815.83
2019-05-13T14:24:33.067Z,101812.96
2019-05-13T14:27:03.797Z,101811.23
2019-05-13T14:29:40.643Z,101804.88
2019-05-13T14:32:06.697Z,101797.98
2019-05-13T14:34:37.521Z,101801.95
2019-05-13T14:37:08.257Z,101793.56
2019-05-13T14:39:39.300Z,101794.62
2019-05-13T14:42:11.588Z,101803.70
2019-05-13T14:44:42.733Z,101798.30
2019-05-13T14:47:13.169Z,101798.49
2019-05-13T14:49:43.685Z,101787.32
2019-05-13T14:52:14.462Z,101781.56
2019-05-13T14:54:44.894Z,101785.38
2019-05-13T14:57:17.591Z,101781.12
2019-05-13T14:59:48.478Z,101778.34
2019-05-13T15:02:18.985Z,101777.44
2019-05-13T15:04:52.350Z,101778.31
2019-05-13T15:07:21.987Z,101776.79
2019-05-13T15:09:52.433Z,101777.76
2019-05-13T15:12:23.811Z,101772.20
2019-05-13T15:14:54.813Z,101773.38
2019-05-13T15:17:25.293Z,101771.72
2019-05-13T15:19:56.632Z,101773.38
2019-05-13T15:22:27.062Z,101774.05
2019-05-13T15:24:57.502Z,101777.59
2019-05-13T15:27:28.111Z,101770.48
2019-05-13T15:30:14.602Z,101772.34
2019-05-13T15:32:32.540Z,101773.58
2019-05-13T15:35:04.197Z,101766.37
2019-05-13T15:37:34.699Z,101766.37
2019-05-13T15:40:05.686Z,101773.78
2019-05-13T15:42:36.132Z,101774.28
2019-05-13T15:45:07.677Z,101759.05
2019-05-13T15:47:38.113Z,101759.05
2019-05-13T15:50:08.960Z,101768.87
2019-05-13T15:52:42.945Z,101762.01
2019-05-13T15:55:12.316Z,101762.01
2019-05-13T15:57:43.297Z,101767.77
2019-05-13T16:00:13.779Z,101758.28
2019-05-13T16:02:45.810Z,101767.42
2019-05-13T16:05:16.252Z,101765.86
2019-05-13T16:07:46.744Z,101767.59
2019-05-13T16:10:18.433Z,101759.05
2019-05-13T16:12:51.842Z,101758.34
2019-05-13T16:15:22.102Z,101763.33
2019-05-13T16:17:52.989Z,101763.02
2019-05-13T16:20:23.442Z,101763.75
2019-05-13T16:22:54.693Z,101754.20
2019-05-13T16:25:25.119Z,101763.75
2019-05-13T16:27:56.861Z,101763.45
2019-05-13T16:30:27.720Z,101759.42
2019-05-13T16:32:58.741Z,101764.87
2019-05-13T16:35:31.688Z,101761.77
2019-05-13T16:38:01.820Z,101770.35
2019-05-13T16:40:36.572Z,101760.78
2019-05-13T16:43:06.142Z,101758.05
2019-05-13T16:45:36.975Z,101763.24
2019-05-13T16:48:07.989Z,101763.79
2019-05-13T16:50:38.490Z,101760.28
2019-05-13T16:53:09.654Z,101752.86
2019-05-13T16:55:41.640Z,101754.90
2019-05-13T16:58:12.954Z,101752.83
2019-05-13T17:00:43.741Z,101749.98
2019-05-13T17:03:15.665Z,101754.28
2019-05-13T17:05:46.169Z,101759.92
2019-05-13T17:08:17.244Z,101755.29
2019-05-13T17:10:47.698Z,101761.20
2019-05-13T17:13:19.273Z,101756.57
2019-05-13T17:15:52.102Z,101748.67
2019-05-13T17:18:22.794Z,101751.37
2019-05-13T17:20:53.224Z,101755.93
2019-05-13T17:23:24.022Z,101762.70
2019-05-13T17:25:55.194Z,101759.05
2019-05-13T17:28:26.000Z,101769.67
2019-05-13T17:30:56.460Z,101770.33
2019-05-13T17:33:27.934Z,101770.11
2019-05-13T17:36:01.912Z,101769.84
2019-05-13T17:38:32.779Z,101769.11
2019-05-13T17:41:04.087Z,101768.55
2019-05-13T17:43:34.924Z,101768.48
2019-05-13T17:46:05.995Z,101765.43
2019-05-13T17:48:36.812Z,101776.34
2019-05-13T17:51:07.430Z,101771.66
2019-05-13T17:53:38.080Z,101763.51
2019-05-13T17:56:11.082Z,101765.52
2019-05-13T17:58:42.060Z,101756.93
2019-05-13T18:01:13.213Z,101769.44
2019-05-13T18:03:43.671Z,101763.00
2019-05-13T18:06:14.194Z,101757.32
2019-05-13T18:08:44.685Z,101759.79
2019-05-13T18:11:15.941Z,101761.89
2019-05-13T18:13:46.383Z,101765.91
2019-05-13T18:16:17.151Z,101758.88
2019-05-13T18:18:47.877Z,101758.44
2019-05-13T18:21:19.708Z,101762.05
2019-05-13T18:23:52.129Z,101765.33
2019-05-13T18:26:22.929Z,101760.06
2019-05-13T18:28:54.035Z,101764.39
2019-05-13T18:31:26.869Z,101766.53
2019-05-13T18:33:57.648Z,101767.42
2019-05-13T18:36:31.792Z,101772.06
2019-05-13T18:39:05.216Z,101763.45
2019-05-13T18:41:35.650Z,101766.28
2019-05-13T18:44:06.669Z,101765.83
2019-05-13T18:46:37.472Z,101760.97
2019-05-13T18:49:08.241Z,101760.41
2019-05-13T18:51:39.324Z,101771.80
2019-05-13T18:54:11.905Z,101778.32
2019-05-13T18:56:42.632Z,101778.35
2019-05-13T18:59:13.167Z,101778.39
2019-05-13T19:01:43.667Z,101782.68
2019-05-13T19:04:14.513Z,101782.84
2019-05-13T19:06:45.829Z,101778.56
2019-05-13T19:09:16.344Z,101786.38
2019-05-13T19:11:51.582Z,101780.09
2019-05-13T19:14:22.153Z,101781.92
2019-05-13T19:16:52.613Z,101790.81
2019-05-13T19:19:23.089Z,101786.59
2019-05-13T19:21:55.398Z,101787.91
2019-05-13T19:24:26.585Z,101790.59
2019-05-13T19:26:57.693Z,101789.03
2019-05-13T19:29:28.181Z,101787.34
2019-05-13T19:32:01.844Z,101793.17
2019-05-13T19:34:32.611Z,101796.95
2019-05-13T19:37:03.141Z,101801.23
2019-05-13T19:39:34.894Z,101799.61
2019-05-13T19:42:05.878Z,101806.78
2019-05-13T19:44:36.986Z,101816.77
2019-05-13T19:47:07.735Z,101814.21
2019-05-13T19:49:38.157Z,101825.64
2019-05-13T19:52:08.678Z,101814.17
2019-05-13T19:54:39.424Z,101823.18
2019-05-13T19:57:11.950Z,101822.92
2019-05-13T19:59:44.509Z,101820.48
2019-05-13T20:02:15.369Z,101821.70
2019-05-13T20:04:45.804Z,101826.67
2019-05-13T20:07:16.998Z,101829.69
2019-05-13T20:09:47.442Z,101821.97
2019-05-13T20:12:18.355Z,101827.95
2019-05-13T20:14:51.583Z,101821.26
2019-05-13T20:17:22.824Z,101822.78
2019-05-13T20:19:54.073Z,101824.82
2019-05-13T20:22:24.579Z,101820.78
2019-05-13T20:24:55.465Z,101818.69
2019-05-13T20:27:25.898Z,101827.23
2019-05-13T20:29:56.713Z,101826.45
2019-05-13T20:32:27.591Z,101828.23
2019-05-13T20:34:58.033Z,101831.26
2019-05-13T20:37:28.543Z,101828.36
2019-05-13T20:39:59.006Z,101830.34
2019-05-13T20:42:29.858Z,101835.74
2019-05-13T20:45:02.452Z,101831.20
2019-05-13T20:47:34.488Z,101839.34
2019-05-13T20:50:05.573Z,101831.93
2019-05-13T20:52:36.131Z,101839.05
2019-05-13T20:55:06.803Z,101837.23
2019-05-13T20:57:37.238Z,101836.69
2019-05-13T21:00:08.446Z,101837.00
2019-05-13T21:03:04.470Z,101832.81
2019-05-13T21:05:41.300Z,101834.72
2019-05-13T21:08:11.979Z,101837.25
2019-05-13T21:10:43.843Z,101842.70
2019-05-13T21:13:17.383Z,101846.64
2019-05-13T21:15:51.630Z,101843.13
2019-05-13T21:18:22.704Z,101844.34
2019-05-13T21:20:54.463Z,101844.46
2019-05-13T21:23:26.222Z,101837.96
2019-05-13T21:25:57.048Z,101844.30
2019-05-13T21:28:27.472Z,101839.22
2019-05-13T21:30:58.285Z,101846.01
2019-05-13T21:33:28.585Z,101845.36
2019-05-13T21:36:01.561Z,101843.20
2019-05-13T21:38:32.515Z,101838.99
2019-05-13T21:41:02.908Z,101837.81
2019-05-13T21:43:33.555Z,101836.92
2019-05-13T21:46:03.892Z,101830.84
2019-05-13T21:48:34.190Z,101833.73
2019-05-13T21:51:04.799Z,101830.66
2019-05-13T21:53:35.581Z,101823.16
2019-05-13T21:56:05.974Z,101829.40
2019-05-13T21:58:36.261Z,101825.39
2019-05-13T22:01:06.600Z,101834.73
2019-05-13T22:03:36.887Z,101831.14
2019-05-13T22:06:07.192Z,101835.57
2019-05-13T22:08:37.503Z,101831.75
2019-05-13T22:11:08.124Z,101839.10
2019-05-13T22:13:38.876Z,101843.59
2019-05-13T22:16:09.173Z,101843.21
2019-05-13T22:18:41.610Z,101839.03
2019-05-13T22:21:11.899Z,101836.16
2019-05-13T22:23:42.592Z,101835.03
2019-05-13T22:26:13.277Z,101833.87
2019-05-13T22:28:44.322Z,101831.80
2019-05-13T22:31:14.611Z,101827.91
2019-05-13T22:33:45.404Z,101830.82
2019-05-13T22:36:15.705Z,101828.92
2019-05-13T22:38:46.017Z,101824.85
2019-05-13T22:41:16.313Z,101821.80
2019-05-13T22:43:55.596Z,101824.09
2019-05-13T22:46:21.442Z,101821.81
2019-05-13T22:48:51.666Z,101826.80
2019-05-13T22:51:21.989Z,101817.64
2019-05-13T22:53:52.711Z,101824.42
2019-05-13T22:56:23.855Z,101819.58
2019-05-13T22:58:54.695Z,101815.25
2019-05-13T23:01:25.258Z,101814.90
2019-05-13T23:03:56.172Z,101806.13
2019-05-13T23:06:26.477Z,101816.24
2019-05-13T23:08:57.437Z,101815.02
2019-05-13T23:11:28.176Z,101807.69
2019-05-13T23:14:09.044Z,101807.30
2019-05-13T23:16:31.577Z,101803.52
2019-05-13T23:19:02.098Z,101801.17
2019-05-13T23:21:32.398Z,101797.06
2019-05-13T23:24:02.687Z,101799.55
2019-05-13T23:26:33.060Z,101792.40
2019-05-13T23:29:03.743Z,101793.66
2019-05-13T23:31:34.095Z,101790.82
2019-05-13T23:34:04.843Z,101791.17
2019-05-13T23:36:35.710Z,101800.54
2019-05-13T23:39:07.545Z,101794.61
2019-05-13T23:41:37.897Z,101800.75
2019-05-13T23:44:23.275Z,101791.42
2019-05-13T23:46:42.085Z,101792.64
2019-05-13T23:49:12.472Z,101793.20
2019-05-13T23:51:42.768Z,101786.09
2019-05-13T23:54:13.064Z,101790.19
2019-05-13T23:56:44.006Z,101784.39
2019-05-13T23:59:14.297Z,101789.92
